createdAt,value
2019-03-01T00:00:01.062Z,22.63
2019-03-01T00:02:31.105Z,19.83
2019-03-01T00:05:44.348Z,21.93
2019-03-01T00:08:19.589Z,21.17
2019-03-01T00:11:41.740Z,22.33
2019-03-01T00:14:38.623Z,20.23
2019-03-01T00:17:48.400Z,21.73
2019-03-01T00:20:29.952Z,19.00
2019-03-01T00:23:37.569Z,21.97
2019-03-01T00:26:35.541Z,21.57
2019-03-01T00:29:41.402Z,22.50
2019-03-01T00:32:21.361Z,21.07
2019-03-01T00:35:19.900Z,21.23
2019-03-01T00:38:32.865Z,20.43
2019-03-01T00:41:29.285Z,21.30
2019-03-01T00:44:37.547Z,21.43
2019-03-01T00:47:07.085Z,22.00
2019-03-01T00:49:36.596Z,23.03
2019-03-01T00:52:06.549Z,22.63
2019-03-01T00:54:36.197Z,22.10
2019-03-01T00:57:06.163Z,25.07
2019-03-01T00:59:35.761Z,24.23
2019-03-01T01:02:05.471Z,22.90
2019-03-01T01:04:34.986Z,22.17
2019-03-01T01:07:04.662Z,22.33
2019-03-01T01:12:21.731Z,23.13
2019-03-01T01:14:51.182Z,23.07
2019-03-01T01:17:20.631Z,23.33
2019-03-01T01:19:50.186Z,23.57
2019-03-01T01:22:19.630Z,22.80
2019-03-01T01:24:49.077Z,22.60
2019-03-01T01:27:18.892Z,23.63
2019-03-01T01:29:48.331Z,22.43
2019-03-01T01:32:17.764Z,23.07
2019-03-01T01:34:47.447Z,23.07
2019-03-01T01:37:16.882Z,22.57
2019-03-01T01:39:46.398Z,23.13
2019-03-01T01:42:16.178Z,24.13
2019-03-01T01:44:45.655Z,23.00
2019-03-01T01:47:15.084Z,23.10
2019-03-01T01:49:44.760Z,22.37
2019-03-01T01:52:14.215Z,22.00
2019-03-01T01:54:43.648Z,23.43
2019-03-01T01:57:13.558Z,22.57
2019-03-01T01:59:43.014Z,24.30
2019-03-01T02:02:12.458Z,23.67
2019-03-01T02:04:42.028Z,23.63
2019-03-01T02:07:11.458Z,23.70
2019-03-01T02:09:40.884Z,22.93
2019-03-01T02:12:10.488Z,22.77
2019-03-01T02:14:39.994Z,25.87
2019-03-01T02:17:09.414Z,24.07
2019-03-01T02:19:38.927Z,25.00
2019-03-01T02:22:08.541Z,23.80
2019-03-01T02:24:37.985Z,23.00
2019-03-01T02:27:25.481Z,23.00
2019-03-01T02:29:55.079Z,21.97
2019-03-01T02:32:44.628Z,23.13
2019-03-01T02:35:16.137Z,24.17
2019-03-01T02:37:45.633Z,24.27
2019-03-01T02:40:15.437Z,24.77
2019-03-01T02:42:44.881Z,24.07
2019-03-01T02:45:16.515Z,23.90
2019-03-01T02:47:46.017Z,23.13
2019-03-01T02:50:16.546Z,23.90
2019-03-01T02:52:46.016Z,25.20
2019-03-01T02:55:16.601Z,23.40
2019-03-01T02:57:46.298Z,23.43
2019-03-01T03:00:18.361Z,25.43
2019-03-01T03:02:47.840Z,23.60
2019-03-01T03:05:17.277Z,24.13
2019-03-01T03:07:51.442Z,25.77
2019-03-01T03:10:20.908Z,24.77
2019-03-01T03:12:51.637Z,26.33
2019-03-01T03:15:29.032Z,24.90
2019-03-01T03:17:58.607Z,24.10
2019-03-01T03:20:28.021Z,24.40
2019-03-01T03:22:57.485Z,25.07
2019-03-01T03:25:26.953Z,25.27
2019-03-01T03:27:56.578Z,25.90
2019-03-01T03:30:26.015Z,24.13
2019-03-01T03:32:55.498Z,24.40
2019-03-01T03:35:25.265Z,25.40
2019-03-01T03:37:54.718Z,26.10
2019-03-01T03:40:24.232Z,24.83
2019-03-01T03:42:53.841Z,23.97
2019-03-01T03:45:23.286Z,24.93
2019-03-01T03:47:52.789Z,25.23
2019-03-01T03:50:22.345Z,26.80
2019-03-01T03:52:51.837Z,25.17
2019-03-01T03:55:21.474Z,25.33
2019-03-01T03:57:51.138Z,25.80
2019-03-01T04:00:20.695Z,25.90
2019-03-01T04:02:50.185Z,24.67
2019-03-01T04:05:19.814Z,24.80
2019-03-01T04:07:49.271Z,26.20
2019-03-01T04:10:18.751Z,26.13
2019-03-01T04:12:48.432Z,26.60
2019-03-01T04:15:17.882Z,26.13
2019-03-01T04:17:47.386Z,27.50
2019-03-01T04:20:17.482Z,27.00
2019-03-01T04:22:46.936Z,27.37
2019-03-01T04:25:16.470Z,24.63
2019-03-01T04:27:45.930Z,24.17
2019-03-01T04:30:16.744Z,24.37
2019-03-01T04:32:46.898Z,24.70
2019-03-01T04:35:17.114Z,24.87
2019-03-01T04:37:46.584Z,25.83
2019-03-01T04:40:16.203Z,26.33
2019-03-01T04:42:45.924Z,24.47
2019-03-01T04:45:15.379Z,25.00
2019-03-01T04:47:45.361Z,25.23
2019-03-01T04:50:14.898Z,24.50
2019-03-01T04:52:44.351Z,24.93
2019-03-01T04:55:19.089Z,26.10
2019-03-01T04:57:48.523Z,25.27
2019-03-01T05:00:23.010Z,24.43
2019-03-01T05:02:52.640Z,23.93
2019-03-01T05:05:22.093Z,25.67
2019-03-01T05:07:51.690Z,24.50
2019-03-01T05:10:25.136Z,25.67
2019-03-01T05:12:54.589Z,23.77
2019-03-01T05:15:24.707Z,23.90
2019-03-01T05:17:54.421Z,24.67
2019-03-01T05:20:23.889Z,24.03
2019-03-01T05:22:53.394Z,25.37
2019-03-01T05:25:23.163Z,25.53
2019-03-01T05:27:52.605Z,26.57
2019-03-01T05:30:22.118Z,23.30
2019-03-01T05:32:51.970Z,26.40
2019-03-01T05:35:21.434Z,24.13
2019-03-01T05:37:51.120Z,24.70
2019-03-01T05:40:20.561Z,24.33
2019-03-01T05:42:50.045Z,25.13
2019-03-01T05:45:21.796Z,28.37
2019-03-01T05:47:51.265Z,31.20
2019-03-01T05:50:20.759Z,30.53
2019-03-01T05:52:50.244Z,30.80
2019-03-01T05:55:19.706Z,29.70
2019-03-01T05:58:45.621Z,27.83
2019-03-01T06:01:38.501Z,27.63
2019-03-01T06:04:18.264Z,24.93
2019-03-01T06:07:15.542Z,26.60
2019-03-01T06:10:08.273Z,26.70
2019-03-01T06:13:03.745Z,29.63
2019-03-01T06:16:03.256Z,30.60
2019-03-01T06:19:25.057Z,25.87
2019-03-01T06:22:27.505Z,24.63
2019-03-01T06:25:41.051Z,28.17
2019-03-01T06:28:18.256Z,26.40
2019-03-01T06:31:20.381Z,26.50
2019-03-01T06:34:19.506Z,23.60
2019-03-01T06:37:35.768Z,23.20
2019-03-01T06:40:49.421Z,24.13
2019-03-01T06:43:43.891Z,22.70
2019-03-01T06:47:09.365Z,24.10
2019-03-01T06:49:59.199Z,23.13
2019-03-01T06:52:28.841Z,22.00
2019-03-01T06:54:58.330Z,23.37
2019-03-01T06:57:27.841Z,23.10
2019-03-01T06:59:57.729Z,24.40
2019-03-01T07:02:34.109Z,23.30
2019-03-01T07:05:03.746Z,22.63
2019-03-01T07:07:33.193Z,21.70
2019-03-01T07:10:02.652Z,21.57
2019-03-01T07:12:32.655Z,23.30
2019-03-01T07:15:02.113Z,23.90
2019-03-01T07:17:31.849Z,24.27
2019-03-01T07:20:01.367Z,24.50
2019-03-01T07:22:30.817Z,25.43
2019-03-01T07:25:00.339Z,24.47
2019-03-01T07:27:31.049Z,22.70
2019-03-01T07:30:00.842Z,25.40
2019-03-01T07:32:30.427Z,29.07
2019-03-01T07:34:59.950Z,30.00
2019-03-01T07:37:29.490Z,23.50
2019-03-01T07:39:58.927Z,22.43
2019-03-01T07:42:28.412Z,23.23
2019-03-01T07:44:58.058Z,21.67
2019-03-01T07:47:27.529Z,21.00
2019-03-01T07:49:57.284Z,18.87
2019-03-01T07:52:26.743Z,17.40
2019-03-01T07:54:56.233Z,18.87
2019-03-01T07:57:25.722Z,19.00
2019-03-01T07:59:55.633Z,16.90
2019-03-01T08:02:25.129Z,17.33
2019-03-01T08:04:54.936Z,16.63
2019-03-01T08:07:24.390Z,16.43
2019-03-01T08:09:54.283Z,15.93
2019-03-01T08:12:23.915Z,17.77
2019-03-01T08:14:53.514Z,16.33
2019-03-01T08:17:22.972Z,15.73
2019-03-01T08:19:54.846Z,18.47
2019-03-01T08:22:25.018Z,16.87
2019-03-01T08:24:54.785Z,18.03
2019-03-01T08:27:25.266Z,16.20
2019-03-01T08:29:55.159Z,15.97
2019-03-01T08:32:27.442Z,15.80
2019-03-01T08:34:55.727Z,15.40
2019-03-01T08:37:25.251Z,16.20
2019-03-01T08:39:54.706Z,15.83
2019-03-01T08:42:24.181Z,15.63
2019-03-01T08:44:54.576Z,15.43
2019-03-01T08:47:24.847Z,15.83
2019-03-01T08:49:54.565Z,16.10
2019-03-01T08:52:24.314Z,15.63
2019-03-01T08:54:53.862Z,13.73
2019-03-01T08:57:26.529Z,14.43
2019-03-01T08:59:54.465Z,12.37
2019-03-01T09:02:23.938Z,14.33
2019-03-01T09:04:53.608Z,13.53
2019-03-01T09:07:23.097Z,12.83
2019-03-01T09:09:53.767Z,12.23
2019-03-01T09:12:24.031Z,13.87
2019-03-01T09:14:53.507Z,13.50
2019-03-01T09:17:23.000Z,14.23
2019-03-01T09:19:52.509Z,14.00
2019-03-01T09:22:24.245Z,14.30
2019-03-01T09:24:53.405Z,14.57
2019-03-01T09:27:22.923Z,14.13
2019-03-01T09:29:52.529Z,15.77
2019-03-01T09:32:21.990Z,12.57
2019-03-01T09:34:54.649Z,13.77
2019-03-01T09:37:24.373Z,14.83
2019-03-01T09:39:54.754Z,15.30
2019-03-01T09:42:24.624Z,12.73
2019-03-01T09:44:54.141Z,14.77
2019-03-01T09:47:23.610Z,13.53
2019-03-01T09:49:56.641Z,13.57
2019-03-01T09:52:24.630Z,13.07
2019-03-01T09:54:54.127Z,12.50
2019-03-01T09:57:23.842Z,12.57
2019-03-01T09:59:53.313Z,13.23
2019-03-01T10:02:22.765Z,12.93
2019-03-01T10:04:52.441Z,15.60
2019-03-01T10:07:22.449Z,15.13
2019-03-01T10:09:52.019Z,11.63
2019-03-01T10:12:21.477Z,11.20
2019-03-01T10:14:50.941Z,10.60
2019-03-01T10:17:20.486Z,10.67
2019-03-01T10:19:49.990Z,9.13
2019-03-01T10:22:19.441Z,9.93
2019-03-01T10:24:49.337Z,9.80
2019-03-01T10:27:18.804Z,9.43
2019-03-01T10:29:48.293Z,9.60
2019-03-01T10:32:17.915Z,8.53
2019-03-01T10:34:47.350Z,8.13
2019-03-01T10:37:16.857Z,8.80
2019-03-01T10:39:55.237Z,9.00
2019-03-01T10:42:17.849Z,8.80
2019-03-01T10:44:47.315Z,9.13
2019-03-01T10:47:16.784Z,8.67
2019-03-01T10:49:46.366Z,7.80
2019-03-01T10:52:15.867Z,10.00
2019-03-01T10:54:46.341Z,8.07
2019-03-01T10:57:16.025Z,9.87
2019-03-01T10:59:45.522Z,7.73
2019-03-01T11:02:15.000Z,8.13
2019-03-01T11:04:44.581Z,8.10
2019-03-01T11:07:14.107Z,8.10
2019-03-01T11:09:43.543Z,9.00
2019-03-01T11:12:13.137Z,7.97
2019-03-01T11:14:42.621Z,8.17
2019-03-01T11:17:12.075Z,8.00
2019-03-01T11:19:41.934Z,7.80
2019-03-01T11:22:11.376Z,8.83
2019-03-01T11:24:40.890Z,7.50
2019-03-01T11:27:13.057Z,7.33
2019-03-01T11:29:41.820Z,7.60
2019-03-01T11:32:11.894Z,8.27
2019-03-01T11:34:41.362Z,7.40
2019-03-01T11:37:10.842Z,7.87
2019-03-01T11:39:40.654Z,7.50
2019-03-01T11:42:10.181Z,6.97
2019-03-01T11:44:39.657Z,7.03
2019-03-01T11:47:10.148Z,7.67
2019-03-01T11:49:40.408Z,7.63
2019-03-01T11:52:18.352Z,8.00
2019-03-01T11:54:47.899Z,7.20
2019-03-01T11:57:17.350Z,7.60
2019-03-01T11:59:48.079Z,6.93
2019-03-01T12:02:17.666Z,7.87
2019-03-01T12:04:47.279Z,7.40
2019-03-01T12:07:16.714Z,7.90
2019-03-01T12:09:46.583Z,7.70
2019-03-01T12:12:17.227Z,8.13
2019-03-01T12:14:46.702Z,7.73
2019-03-01T12:17:16.180Z,7.73
2019-03-01T12:19:45.705Z,8.63
2019-03-01T12:22:17.414Z,8.03
2019-03-01T12:24:46.297Z,8.03
2019-03-01T12:27:15.751Z,8.50
2019-03-01T12:29:45.557Z,8.57
2019-03-01T12:32:15.018Z,7.47
2019-03-01T12:34:44.483Z,8.60
2019-03-01T12:37:14.120Z,8.33
2019-03-01T12:39:43.604Z,8.83
2019-03-01T12:42:13.006Z,8.03
2019-03-01T12:44:42.640Z,8.70
2019-03-01T12:47:12.115Z,8.57
2019-03-01T12:49:41.589Z,9.60
2019-03-01T12:52:11.237Z,8.73
2019-03-01T12:54:40.713Z,8.77
2019-03-01T12:57:10.167Z,9.43
2019-03-01T12:59:40.354Z,9.17
2019-03-01T13:02:10.155Z,8.73
2019-03-01T13:04:39.588Z,8.40
2019-03-01T13:07:10.562Z,8.77
2019-03-01T13:09:40.711Z,8.07
2019-03-01T13:12:10.203Z,9.03
2019-03-01T13:14:40.320Z,8.67
2019-03-01T13:17:09.965Z,8.43
2019-03-01T13:19:41.749Z,8.27
2019-03-01T13:22:11.241Z,8.77
2019-03-01T13:24:41.141Z,8.57
2019-03-01T13:27:10.913Z,8.80
2019-03-01T13:29:40.557Z,8.93
2019-03-01T13:32:10.017Z,8.30
2019-03-01T13:34:39.496Z,9.17
2019-03-01T13:37:15.190Z,9.70
2019-03-01T13:39:40.387Z,10.07
2019-03-01T13:42:10.321Z,9.87
2019-03-01T13:44:41.066Z,8.43
2019-03-01T13:47:10.560Z,8.70
2019-03-01T13:49:40.099Z,8.47
2019-03-01T13:52:09.597Z,7.43
2019-03-01T13:54:39.115Z,7.07
2019-03-01T13:57:11.438Z,8.20
2019-03-01T13:59:40.401Z,6.80
2019-03-01T14:02:11.271Z,5.53
2019-03-01T14:04:41.386Z,5.83
2019-03-01T14:07:30.000Z,5.07
2019-03-01T14:10:00.867Z,4.60
2019-03-01T14:12:30.672Z,5.60
2019-03-01T14:15:02.915Z,4.60
2019-03-01T14:17:31.976Z,3.10
2019-03-01T14:20:01.425Z,3.07
2019-03-01T14:22:31.302Z,2.80
2019-03-01T14:25:02.463Z,2.77
2019-03-01T14:27:32.812Z,2.30
2019-03-01T14:30:02.354Z,1.80
2019-03-01T14:32:31.981Z,2.60
2019-03-01T14:35:01.430Z,2.80
2019-03-01T14:37:31.461Z,2.10
2019-03-01T14:40:00.917Z,1.67
2019-03-01T14:42:30.796Z,1.63
2019-03-01T14:45:03.565Z,2.50
2019-03-01T14:47:34.350Z,2.77
2019-03-01T14:50:03.850Z,2.20
2019-03-01T14:52:33.520Z,2.40
2019-03-01T14:55:02.992Z,2.33
2019-03-01T14:57:39.385Z,2.67
2019-03-01T15:00:30.927Z,7.60
2019-03-01T15:03:27.698Z,2.17
2019-03-01T15:05:57.209Z,3.07
2019-03-01T15:08:26.712Z,3.77
2019-03-01T15:10:56.434Z,5.43
2019-03-01T15:13:27.803Z,7.03
2019-03-01T15:15:57.248Z,4.63
2019-03-01T15:18:28.995Z,3.90
2019-03-01T15:21:02.387Z,8.00
2019-03-01T15:23:29.126Z,10.03
2019-03-01T15:25:59.122Z,13.67
2019-03-01T15:28:28.725Z,3.60
2019-03-01T15:30:58.385Z,9.10
2019-03-01T15:33:27.828Z,7.07
2019-03-01T15:35:57.701Z,3.57
2019-03-01T15:38:27.670Z,4.87
2019-03-01T15:40:58.328Z,4.30
2019-03-01T15:43:29.900Z,2.53
2019-03-01T15:45:59.512Z,3.57
2019-03-01T15:48:29.007Z,3.23
2019-03-01T15:50:59.080Z,4.43
2019-03-01T15:53:29.956Z,4.20
2019-03-01T15:56:02.128Z,6.03
2019-03-01T15:58:33.225Z,2.80
2019-03-01T16:01:01.768Z,2.90
2019-03-01T16:03:31.345Z,3.27
2019-03-01T16:06:01.173Z,3.37
2019-03-01T16:08:30.684Z,2.20
2019-03-01T16:11:00.227Z,2.53
2019-03-01T16:13:29.746Z,2.30
2019-03-01T16:15:59.397Z,2.87
2019-03-01T16:18:29.036Z,2.40
2019-03-01T16:20:58.520Z,2.33
2019-03-01T16:23:30.182Z,2.40
2019-03-01T16:25:59.612Z,2.20
2019-03-01T16:28:31.258Z,2.37
2019-03-01T16:31:00.435Z,2.83
2019-03-01T16:33:30.074Z,2.07
2019-03-01T16:36:01.030Z,2.13
2019-03-01T16:38:40.405Z,2.43
2019-03-01T16:41:07.461Z,2.67
2019-03-01T16:43:33.036Z,2.73
2019-03-01T16:46:02.513Z,4.10
2019-03-01T16:48:31.980Z,3.80
2019-03-01T16:51:01.685Z,2.53
2019-03-01T16:53:31.167Z,1.90
2019-03-01T16:56:02.576Z,2.33
2019-03-01T16:58:31.790Z,2.23
2019-03-01T17:01:01.401Z,1.93
2019-03-01T17:03:31.049Z,1.97
2019-03-01T17:06:00.565Z,1.83
2019-03-01T17:08:30.031Z,2.00
2019-03-01T17:11:02.632Z,2.30
2019-03-01T17:13:30.646Z,2.33
2019-03-01T17:16:00.157Z,2.67
2019-03-01T17:18:30.101Z,4.63
2019-03-01T17:20:59.627Z,4.73
2019-03-01T17:23:29.135Z,3.83
2019-03-01T17:25:58.562Z,3.33
2019-03-01T17:28:28.054Z,3.27
2019-03-01T17:30:58.220Z,2.77
2019-03-01T17:33:27.787Z,4.03
2019-03-01T17:35:57.353Z,4.00
2019-03-01T17:38:26.797Z,3.27
2019-03-01T17:40:56.288Z,3.60
2019-03-01T17:43:26.175Z,6.87
2019-03-01T17:45:57.865Z,4.40
2019-03-01T17:48:26.718Z,3.13
2019-03-01T17:50:56.229Z,2.87
2019-03-01T17:53:25.679Z,3.10
2019-03-01T17:55:55.154Z,3.03
2019-03-01T17:58:24.618Z,3.23
2019-03-01T18:00:54.068Z,4.53
2019-03-01T18:03:23.781Z,4.53
2019-03-01T18:05:54.280Z,3.53
2019-03-01T18:08:23.750Z,3.17
2019-03-01T18:10:53.343Z,3.30
2019-03-01T18:13:22.825Z,2.50
2019-03-01T18:15:52.283Z,2.90
2019-03-01T18:18:21.863Z,4.10
2019-03-01T18:20:51.393Z,3.70
2019-03-01T18:23:20.847Z,3.90
2019-03-01T18:25:50.748Z,3.33
2019-03-01T18:28:20.205Z,3.37
2019-03-01T18:30:52.028Z,3.80
2019-03-01T18:33:22.768Z,4.03
2019-03-01T18:35:55.449Z,4.60
2019-03-01T18:38:23.553Z,4.07
2019-03-01T18:40:53.106Z,4.50
2019-03-01T18:43:22.974Z,4.70
2019-03-01T18:45:52.465Z,3.77
2019-03-01T18:48:22.073Z,3.77
2019-03-01T18:50:51.631Z,3.10
2019-03-01T18:53:21.096Z,3.77
2019-03-01T18:55:53.010Z,3.60
2019-03-01T18:58:25.725Z,3.10
2019-03-01T19:00:55.340Z,3.73
2019-03-01T19:03:24.838Z,2.13
2019-03-01T19:05:54.316Z,2.20
2019-03-01T19:08:24.212Z,2.77
2019-03-01T19:10:54.470Z,3.93
2019-03-01T19:13:25.509Z,4.40
2019-03-01T19:15:55.131Z,3.10
2019-03-01T19:18:24.623Z,3.17
2019-03-01T19:20:55.273Z,3.40
2019-03-01T19:23:25.731Z,3.20
2019-03-01T19:25:57.905Z,3.63
2019-03-01T19:28:27.582Z,3.93
2019-03-01T19:30:57.117Z,6.37
2019-03-01T19:33:26.697Z,8.03
2019-03-01T19:35:56.241Z,3.20
2019-03-01T19:38:25.896Z,2.40
2019-03-01T19:40:55.578Z,3.80
2019-03-01T19:43:25.061Z,4.03
2019-03-01T19:45:54.532Z,2.90
2019-03-01T19:48:24.178Z,2.80
2019-03-01T19:50:54.133Z,4.37
2019-03-01T19:53:25.487Z,3.87
2019-03-01T19:55:54.819Z,4.87
2019-03-01T19:58:24.365Z,3.23
2019-03-01T20:00:53.976Z,2.67
2019-03-01T20:03:23.473Z,4.03
2019-03-01T20:05:52.951Z,3.13
2019-03-01T20:08:22.465Z,2.50
2019-03-01T20:10:52.103Z,2.53
2019-03-01T20:13:21.697Z,3.00
2019-03-01T20:15:51.203Z,3.47
2019-03-01T20:18:21.373Z,3.37
2019-03-01T20:20:50.934Z,2.87
2019-03-01T20:23:20.440Z,2.37
2019-03-01T20:25:51.009Z,2.90
2019-03-01T20:28:21.050Z,3.23
2019-03-01T20:30:51.335Z,5.37
2019-03-01T20:33:23.483Z,2.57
2019-03-01T20:35:52.154Z,2.23
2019-03-01T20:38:21.619Z,1.80
2019-03-01T20:40:51.080Z,2.83
2019-03-01T20:43:20.767Z,2.30
2019-03-01T20:45:50.253Z,3.00
2019-03-01T20:48:19.711Z,2.50
2019-03-01T20:50:51.017Z,2.50
2019-03-01T20:53:20.510Z,2.73
2019-03-01T20:55:51.008Z,2.40
2019-03-01T20:58:22.153Z,2.50
2019-03-01T21:00:51.876Z,2.57
2019-03-01T21:03:24.034Z,2.63
2019-03-01T21:05:52.569Z,2.93
2019-03-01T21:08:22.082Z,2.57
2019-03-01T21:10:51.585Z,1.90
2019-03-01T21:13:21.145Z,3.10
2019-03-01T21:15:50.636Z,2.40
2019-03-01T21:18:20.104Z,4.07
2019-03-01T21:20:50.597Z,2.67
2019-03-01T21:23:20.921Z,2.13
2019-03-01T21:25:50.365Z,3.03
2019-03-01T21:28:19.857Z,3.80
2019-03-01T21:30:49.466Z,3.40
2019-03-01T21:33:19.036Z,3.03
2019-03-01T21:35:51.169Z,2.53
2019-03-01T21:38:19.584Z,2.40
2019-03-01T21:40:49.473Z,2.93
2019-03-01T21:43:19.007Z,2.87
2019-03-01T21:45:48.644Z,3.70
2019-03-01T21:48:18.670Z,2.93
2019-03-01T21:50:48.338Z,2.57
2019-03-01T21:53:17.772Z,2.67
2019-03-01T21:55:47.216Z,4.53
2019-03-01T21:58:17.232Z,4.87
2019-03-01T22:00:46.926Z,4.70
2019-03-01T22:03:16.402Z,8.37
2019-03-01T22:05:48.579Z,5.37
2019-03-01T22:08:17.002Z,3.17
2019-03-01T22:10:46.467Z,4.17
2019-03-01T22:13:16.084Z,4.77
2019-03-01T22:15:45.638Z,2.70
2019-03-01T22:18:15.101Z,4.93
2019-03-01T22:20:45.635Z,4.93
2019-03-01T22:23:15.808Z,3.47
2019-03-01T22:25:46.172Z,5.07
2019-03-01T22:28:15.750Z,3.47
2019-03-01T22:30:45.242Z,4.73
2019-03-01T22:33:17.378Z,4.60
2019-03-01T22:36:00.560Z,3.53
2019-03-01T22:38:30.161Z,3.93
2019-03-01T22:41:00.529Z,2.93
2019-03-01T22:43:31.331Z,3.50
2019-03-01T22:46:00.835Z,2.80
2019-03-01T22:48:30.397Z,3.37
2019-03-01T22:50:59.889Z,6.67
2019-03-01T22:53:29.360Z,3.60
2019-03-01T22:55:59.161Z,3.00
2019-03-01T22:58:28.605Z,2.47
2019-03-01T23:01:18.068Z,2.90
2019-03-01T23:03:51.499Z,2.60
2019-03-01T23:06:21.456Z,2.67
2019-03-01T23:08:50.920Z,3.40
2019-03-01T23:11:20.423Z,3.07
2019-03-01T23:13:52.681Z,2.70
2019-03-01T23:16:21.303Z,2.40
2019-03-01T23:18:56.638Z,2.73
2019-03-01T23:21:21.967Z,2.90
2019-03-01T23:23:51.918Z,2.60
2019-03-01T23:26:21.760Z,2.70
2019-03-01T23:28:52.330Z,2.60
2019-03-01T23:31:21.850Z,2.67
2019-03-01T23:33:51.626Z,2.77
2019-03-01T23:36:21.111Z,2.83
2019-03-01T23:38:51.311Z,3.17
2019-03-01T23:41:20.866Z,2.60
2019-03-01T23:43:50.519Z,3.00
2019-03-01T23:46:20.024Z,2.97
2019-03-01T23:48:49.797Z,2.93
2019-03-01T23:51:19.251Z,2.50
2019-03-01T23:53:48.742Z,3.00
2019-03-01T23:56:18.177Z,3.20
2019-03-01T23:58:47.976Z,2.50
